Time;durP1;ratioP1;P1;durP2;ratioP2;P2;SDS_P1;SDS_P2;PMS_P1;PMS_P2;Temp;Humidity;BMP_temperature;BMP_pressure;BME280_temperature;BME280_humidity;BME280_pressure;Samples;Min_cycle;Max_cycle;Signal;HPM_P1;HPM_P2
2022/08/18 00:02:10;;;;;;;23.00;11.17;;;12.80;99.90;;;;;;4958930;28;20177;-70
2022/08/18 00:04:38;;;;;;;15.50;9.47;;;12.90;99.90;;;;;;4974647;28;20201;-70
2022/08/18 00:07:11;;;;;;;17.67;10.27;;;13.10;99.90;;;;;;4974465;28;20694;-70
2022/08/18 00:09:39;;;;;;;15.17;9.30;;;13.10;99.90;;;;;;4974188;28;20208;-69
2022/08/18 00:12:13;;;;;;;19.17;8.37;;;13.20;99.90;;;;;;4974454;28;20657;-70
2022/08/18 00:14:42;;;;;;;15.63;6.90;;;13.30;99.90;;;;;;4977561;28;20889;-71
2022/08/18 00:17:09;;;;;;;11.43;6.97;;;13.50;99.90;;;;;;4975057;28;20194;-72
2022/08/18 00:19:37;;;;;;;11.13;5.43;;;13.80;99.90;;;;;;4973568;28;20236;-70
2022/08/18 00:22:05;;;;;;;11.47;4.47;;;14.00;99.90;;;;;;4974384;28;20581;-70
2022/08/18 00:24:32;;;;;;;8.37;4.20;;;14.10;99.90;;;;;;4972793;28;20224;-69
2022/08/18 00:27:00;;;;;;;6.23;3.60;;;14.20;99.90;;;;;;4955093;29;20207;-69
2022/08/18 00:29:28;;;;;;;7.37;4.27;;;14.20;99.90;;;;;;4954865;29;20278;-68
2022/08/18 00:31:55;;;;;;;7.07;3.80;;;14.70;99.90;;;;;;4937794;29;20194;-69
2022/08/18 00:34:23;;;;;;;9.33;4.27;;;15.50;99.90;;;;;;4954679;29;20214;-69
2022/08/18 00:36:50;;;;;;;15.70;4.50;;;16.10;99.90;;;;;;4957200;28;20176;-69
2022/08/18 00:39:18;;;;;;;8.67;4.50;;;16.40;99.90;;;;;;4974219;28;20270;-69
2022/08/18 00:41:45;;;;;;;12.27;5.07;;;16.30;99.90;;;;;;4974247;28;20631;-70
2022/08/18 00:44:15;;;;;;;12.40;5.63;;;16.90;99.90;;;;;;4974087;28;20233;-69
2022/08/18 00:46:42;;;;;;;9.90;4.53;;;18.00;99.90;;;;;;4974008;28;20171;-69
2022/08/18 00:49:10;;;;;;;13.30;4.50;;;18.90;99.90;;;;;;4973700;28;20200;-70
2022/08/18 00:51:48;;;;;;;9.40;4.50;;;19.80;99.90;;;;;;4973630;28;20191;-71
2022/08/18 00:54:27;;;;;;;10.83;4.43;;;20.20;99.90;;;;;;4973678;28;20278;-70
2022/08/18 00:57:03;;;;;;;16.17;5.20;;;20.10;99.90;;;;;;4973162;28;20195;-70
2022/08/18 01:00:12;;;;;;;13.60;4.90;;;19.70;99.90;;;;;;4968455;28;20650;-70
2022/08/18 01:02:48;;;;;;;10.27;4.37;;;20.00;99.90;;;;;;4968807;28;20224;-71
2022/08/18 01:05:25;;;;;;;13.90;4.50;;;19.30;99.90;;;;;;4973605;28;20229;-70
2022/08/18 01:07:52;;;;;;;15.63;4.00;;;18.80;99.90;;;;;;4973135;28;20682;-69
2022/08/18 01:10:23;;;;;;;8.53;3.80;;;18.30;99.90;;;;;;4973348;28;20210;-69
2022/08/18 01:12:53;;;;;;;9.47;3.73;;;18.30;99.90;;;;;;4972394;28;20193;-68
2022/08/18 01:15:24;;;;;;;15.90;4.10;;;19.20;99.90;;;;;;4973324;28;20746;-68
2022/08/18 01:23:30;;;;;;;7.10;2.90;;;21.20;99.90;;;;;;4967112;28;20735;-68
2022/08/18 01:26:02;;;;;;;8.43;3.10;;;21.90;99.90;;;;;;4979312;28;20182;-69
2022/08/18 01:28:33;;;;;;;12.03;4.07;;;22.40;99.90;;;;;;4991976;28;20194;-69
2022/08/18 01:31:03;;;;;;;16.97;3.93;;;21.90;99.90;;;;;;4989996;28;20182;-70
2022/08/18 01:33:35;;;;;;;12.10;4.07;;;21.90;99.90;;;;;;4961124;28;20179;-69
2022/08/18 01:36:15;;;;;;;12.93;4.23;;;22.00;99.90;;;;;;4953980;29;20709;-70
2022/08/18 01:38:49;;;;;;;9.60;4.53;;;22.00;99.90;;;;;;4953956;29;20529;-68
2022/08/18 01:41:21;;;;;;;8.53;3.93;;;21.80;99.90;;;;;;4934937;29;20187;-69
2022/08/18 01:43:50;;;;;;;9.43;4.00;;;22.20;99.90;;;;;;4953931;29;20659;-70
2022/08/18 01:46:20;;;;;;;9.73;3.63;;;22.40;99.90;;;;;;4970732;28;20632;-69
2022/08/18 01:48:48;;;;;;;10.53;4.03;;;22.50;99.90;;;;;;4973002;28;20180;-70
2022/08/18 01:51:19;;;;;;;23.13;4.10;;;22.50;99.90;;;;;;4972854;28;20175;-69
2022/08/18 01:53:47;;;;;;;11.70;3.43;;;22.80;99.90;;;;;;4972861;28;20187;-69
2022/08/18 01:56:16;;;;;;;13.03;3.23;;;22.50;99.90;;;;;;4972796;28;20218;-69
2022/08/18 01:58:46;;;;;;;7.77;3.40;;;22.20;99.90;;;;;;4972853;28;20268;-71
2022/08/18 02:01:15;;;;;;;10.90;3.57;;;22.20;99.90;;;;;;4972425;28;20187;-69
2022/08/18 02:03:49;;;;;;;9.83;3.00;;;21.70;99.90;;;;;;4972541;28;20575;-69
2022/08/18 02:06:18;;;;;;;13.53;3.70;;;21.40;99.90;;;;;;4972040;28;20599;-70
2022/08/18 02:08:46;;;;;;;8.10;3.47;;;21.30;99.90;;;;;;4973000;28;20739;-70
2022/08/18 02:11:15;;;;;;;11.97;3.53;;;20.80;99.90;;;;;;4976536;28;20199;-70
2022/08/18 02:13:42;;;;;;;10.90;3.03;;;20.80;99.90;;;;;;4976563;28;20529;-70
2022/08/18 02:16:10;;;;;;;11.17;3.63;;;21.00;99.90;;;;;;4976332;28;20273;-70
2022/08/18 02:18:38;;;;;;;6.73;3.13;;;20.90;99.90;;;;;;4976130;28;20249;-70
2022/08/18 02:21:16;;;;;;;9.33;2.93;;;20.90;99.90;;;;;;4975933;28;20198;-68
2022/08/18 02:23:45;;;;;;;10.43;2.80;;;21.20;99.90;;;;;;4976209;28;20195;-69
2022/08/18 02:26:14;;;;;;;10.10;2.80;;;21.50;99.90;;;;;;4976033;28;20187;-69
2022/08/18 02:28:42;;;;;;;6.37;3.10;;;21.80;99.90;;;;;;4976186;28;20183;-67
2022/08/18 02:31:19;;;;;;;7.87;3.43;;;22.50;99.90;;;;;;4958901;28;20534;-68
2022/08/18 02:33:47;;;;;;;7.37;2.90;;;22.70;99.90;;;;;;4970410;28;20180;-68
2022/08/18 02:36:16;;;;;;;6.40;2.77;;;23.10;99.90;;;;;;4956926;29;20331;-69
2022/08/18 02:38:44;;;;;;;8.80;2.83;;;22.80;99.90;;;;;;4956803;29;20187;-69
2022/08/18 02:41:13;;;;;;;4.67;2.20;;;23.00;99.90;;;;;;4956797;29;20184;-70
2022/08/18 02:43:42;;;;;;;8.93;2.40;;;22.50;99.00;;;;;;4956881;29;20187;-70
2022/08/18 02:46:10;;;;;;;16.90;2.63;;;22.00;99.90;;;;;;4964399;28;20253;-70
2022/08/18 02:48:38;;;;;;;9.70;2.27;;;21.70;99.90;;;;;;4975904;28;20183;-69
2022/08/18 02:51:15;;;;;;;4.63;2.17;;;21.50;99.90;;;;;;4975857;28;20190;-69
2022/08/18 02:53:45;;;;;;;6.87;2.77;;;21.60;99.90;;;;;;4975884;28;20183;-70
2022/08/18 02:56:29;;;;;;;3.30;2.27;;;21.70;99.90;;;;;;4975245;28;20222;-70
2022/08/18 02:59:08;;;;;;;6.67;1.83;;;21.20;99.90;;;;;;4975898;28;20238;-70
2022/08/18 03:01:38;;;;;;;4.03;1.77;;;21.10;99.90;;;;;;4976062;28;20179;-70
2022/08/18 03:04:08;;;;;;;3.27;1.43;;;21.40;99.90;;;;;;4976553;28;20181;-71
2022/08/18 03:06:38;;;;;;;2.37;1.40;;;21.80;99.90;;;;;;4976393;28;20274;-69
2022/08/18 03:09:08;;;;;;;3.77;1.63;;;21.90;94.00;;;;;;4976153;28;20189;-70
2022/08/18 03:11:37;;;;;;;6.33;1.47;;;21.80;95.60;;;;;;4976596;28;20689;-71
2022/08/18 03:14:06;;;;;;;4.60;1.70;;;21.90;96.40;;;;;;4976817;28;20280;-70
2022/08/18 03:16:35;;;;;;;5.07;1.83;;;22.00;94.90;;;;;;4976526;28;20562;-69
2022/08/18 03:19:03;;;;;;;13.13;2.43;;;21.90;95.20;;;;;;4976200;28;20250;-72
2022/08/18 03:21:36;;;;;;;6.93;1.77;;;22.00;96.10;;;;;;4973031;28;20230;-70
2022/08/18 03:24:05;;;;;;;5.67;1.43;;;21.80;95.40;;;;;;4976441;28;20186;-70
2022/08/18 03:26:39;;;;;;;4.50;1.50;;;21.60;93.20;;;;;;4976719;28;20183;-70
2022/08/18 03:29:07;;;;;;;6.90;2.10;;;21.60;98.80;;;;;;4976644;28;20183;-69
2022/08/18 03:31:36;;;;;;;5.57;1.50;;;21.70;99.90;;;;;;4976579;28;20234;-70
2022/08/18 03:34:07;;;;;;;2.33;1.33;;;21.70;99.90;;;;;;4976341;28;20701;-71
2022/08/18 03:36:36;;;;;;;4.33;1.40;;;21.70;90.70;;;;;;4976455;28;20686;-69
2022/08/18 03:39:09;;;;;;;4.17;1.53;;;21.50;85.50;;;;;;4976353;28;20222;-70
2022/08/18 03:41:42;;;;;;;3.27;1.30;;;21.30;91.90;;;;;;4977012;28;20190;-68
2022/08/18 03:44:18;;;;;;;9.93;1.80;;;21.30;92.80;;;;;;4975583;28;20235;-70
2022/08/18 03:46:46;;;;;;;3.77;1.57;;;21.20;92.20;;;;;;4976335;28;20175;-69
2022/08/18 03:49:19;;;;;;;16.73;1.77;;;21.20;95.10;;;;;;4976244;28;20191;-71
2022/08/18 03:51:47;;;;;;;5.30;1.10;;;21.60;96.30;;;;;;4976340;28;20242;-70
2022/08/18 03:54:17;;;;;;;5.83;1.33;;;21.90;93.50;;;;;;4976252;28;20642;-70
2022/08/18 03:56:46;;;;;;;2.33;1.00;;;22.20;87.20;;;;;;4976239;28;20270;-69
2022/08/18 03:59:22;;;;;;;8.37;1.40;;;22.20;80.60;;;;;;4978077;28;20258;-69
2022/08/18 04:01:52;;;;;;;7.67;1.40;;;22.10;86.30;;;;;;4978396;28;20183;-70
2022/08/18 04:04:23;;;;;;;6.23;1.47;;;22.00;89.40;;;;;;4978738;28;20179;-70
2022/08/18 04:06:57;;;;;;;3.83;1.43;;;21.90;93.20;;;;;;4978308;28;20238;-70
2022/08/18 04:09:27;;;;;;;5.03;1.30;;;21.70;92.00;;;;;;4976846;28;20545;-70
2022/08/18 04:11:55;;;;;;;6.40;1.50;;;21.40;92.70;;;;;;4959487;28;20362;-70
2022/08/18 04:14:30;;;;;;;2.70;1.23;;;21.00;96.30;;;;;;4975795;28;20207;-69
2022/08/18 04:16:59;;;;;;;4.87;1.53;;;20.90;99.60;;;;;;4959537;28;20179;-69
2022/08/18 04:19:27;;;;;;;6.80;1.20;;;20.90;99.90;;;;;;4975239;28;20246;-70
2022/08/18 04:21:57;;;;;;;2.30;1.23;;;20.90;99.90;;;;;;4975764;28;20199;-70
2022/08/18 04:24:27;;;;;;;5.80;1.43;;;20.70;99.90;;;;;;4975772;28;20544;-70
2022/08/18 04:26:58;;;;;;;9.30;2.10;;;20.50;99.90;;;;;;4975720;28;20186;-70
2022/08/18 04:29:27;;;;;;;9.47;1.77;;;20.40;99.90;;;;;;4975553;28;20677;-70
2022/08/18 04:31:55;;;;;;;7.70;2.37;;;20.40;99.90;;;;;;4975160;28;20268;-69
2022/08/18 04:34:23;;;;;;;7.13;1.70;;;20.30;99.90;;;;;;4975443;28;20242;-71
2022/08/18 04:36:54;;;;;;;4.17;1.40;;;20.30;99.90;;;;;;4975308;28;20272;-69
2022/08/18 04:39:22;;;;;;;4.47;1.30;;;20.20;99.90;;;;;;4975410;28;20184;-69
2022/08/18 04:41:51;;;;;;;7.80;1.23;;;20.30;99.90;;;;;;4975437;28;20667;-69
2022/08/18 04:44:20;;;;;;;8.27;1.83;;;20.20;99.90;;;;;;4975486;28;20191;-69
2022/08/18 04:46:53;;;;;;;3.10;1.50;;;20.20;99.90;;;;;;4975248;28;20188;-70
2022/08/18 04:49:24;;;;;;;3.93;1.20;;;20.30;99.90;;;;;;4975341;28;20196;-69
2022/08/18 04:54:40;;;;;;;9.60;1.63;;;20.50;99.90;;;;;;4960702;28;20265;-70
2022/08/18 04:57:14;;;;;;;3.73;1.53;;;20.70;99.90;;;;;;4975153;28;20197;-69
2022/08/18 04:59:44;;;;;;;15.97;2.03;;;20.80;99.90;;;;;;4975088;28;20177;-70
2022/08/18 05:02:13;;;;;;;10.43;1.50;;;20.90;99.90;;;;;;4975144;28;20260;-70
2022/08/18 05:04:45;;;;;;;4.67;1.50;;;20.80;99.90;;;;;;4975158;28;20202;-70
2022/08/18 05:07:17;;;;;;;3.17;1.73;;;20.70;99.90;;;;;;4975112;28;20179;-70
2022/08/18 05:09:45;;;;;;;4.30;1.80;;;20.50;99.90;;;;;;4958231;28;20647;-69
2022/08/18 05:12:14;;;;;;;4.70;1.50;;;20.30;99.90;;;;;;4974899;28;20646;-69
2022/08/18 05:14:44;;;;;;;7.90;1.20;;;20.20;99.90;;;;;;4974869;28;20211;-70
2022/08/18 05:17:13;;;;;;;4.50;1.43;;;20.10;99.90;;;;;;4974737;28;20263;-70
2022/08/18 05:19:42;;;;;;;3.43;1.47;;;20.20;99.90;;;;;;4974618;28;20246;-70
2022/08/18 05:22:16;;;;;;;11.60;1.50;;;20.10;99.90;;;;;;4974528;28;20222;-70
2022/08/18 05:24:45;;;;;;;8.00;1.70;;;20.10;99.90;;;;;;4974690;28;20249;-70
2022/08/18 05:27:14;;;;;;;9.67;1.50;;;20.20;99.90;;;;;;4974625;28;20191;-69
2022/08/18 05:29:42;;;;;;;5.50;1.43;;;20.10;99.90;;;;;;4974345;28;20275;-69
2022/08/18 05:32:10;;;;;;;2.43;1.60;;;20.10;99.90;;;;;;4957113;28;20274;-69
2022/08/18 05:34:38;;;;;;;2.87;1.50;;;20.00;99.90;;;;;;4974419;28;20263;-70
2022/08/18 05:37:22;;;;;;;8.17;1.40;;;19.90;99.90;;;;;;4974209;28;20313;-69
2022/08/18 05:39:58;;;;;;;3.57;1.30;;;19.80;99.90;;;;;;4974243;28;20175;-71
2022/08/18 05:42:30;;;;;;;4.33;1.20;;;19.80;99.90;;;;;;4970323;28;20661;-71
2022/08/18 05:44:59;;;;;;;3.17;1.23;;;19.80;99.90;;;;;;4972639;28;20187;-71
2022/08/18 05:47:32;;;;;;;1.90;1.20;;;19.80;99.90;;;;;;4973876;28;20191;-72
2022/08/18 05:50:12;;;;;;;2.83;1.30;;;19.70;99.90;;;;;;4973519;28;20197;-70
2022/08/18 05:53:00;;;;;;;5.10;1.20;;;19.60;99.90;;;;;;4974067;28;20189;-72
2022/08/18 05:58:40;;;;;;;6.57;1.40;;;19.30;99.90;;;;;;4973827;28;20614;-71
2022/08/18 06:01:22;;;;;;;9.23;1.80;;;19.20;99.90;;;;;;4973580;28;20300;-71
2022/08/18 06:04:00;;;;;;;8.07;1.40;;;19.10;99.90;;;;;;4970726;28;20577;-72
2022/08/18 06:06:30;;;;;;;3.80;1.47;;;19.00;99.90;;;;;;4973919;28;20226;-72
2022/08/18 06:09:21;;;;;;;3.53;1.30;;;18.90;99.90;;;;;;4973204;28;20645;-72
2022/08/18 06:11:49;;;;;;;4.77;1.43;;;18.80;99.90;;;;;;4974650;28;20541;-71
2022/08/18 06:14:18;;;;;;;8.67;1.63;;;18.70;99.90;;;;;;4973670;28;20189;-72
2022/08/18 06:16:57;;;;;;;7.43;1.37;;;18.70;99.90;;;;;;4973760;28;20186;-72
2022/08/18 06:19:45;;;;;;;7.80;1.40;;;18.70;99.90;;;;;;4973069;28;20229;-72
2022/08/18 06:22:38;;;;;;;3.93;1.43;;;18.70;99.90;;;;;;4974095;28;20287;-72
2022/08/18 06:25:11;;;;;;;6.23;1.60;;;18.70;99.90;;;;;;4955134;29;20176;-72
2022/08/18 06:27:57;;;;;;;5.83;1.40;;;18.70;99.90;;;;;;4957009;28;20269;-70
2022/08/18 06:30:43;;;;;;;7.10;1.57;;;18.70;99.90;;;;;;4973283;28;20195;-71
2022/08/18 06:33:38;;;;;;;4.60;1.80;;;18.60;99.90;;;;;;4972780;28;20179;-71
2022/08/18 06:36:15;;;;;;;8.73;1.87;;;18.60;99.90;;;;;;4956474;28;20215;-71
2022/08/18 06:38:46;;;;;;;9.60;1.93;;;18.50;99.90;;;;;;4973312;28;20250;-71
2022/08/18 06:41:38;;;;;;;3.90;1.70;;;18.50;99.90;;;;;;4973406;28;20259;-71
2022/08/18 06:44:15;;;;;;;7.20;1.97;;;18.40;99.90;;;;;;4973389;28;20187;-72
2022/08/18 06:47:06;;;;;;;4.20;1.70;;;18.40;99.90;;;;;;4973245;28;20180;-71
2022/08/18 06:50:08;;;;;;;6.60;2.30;;;18.30;99.90;;;;;;4973423;28;20190;-71
2022/08/18 06:53:00;;;;;;;5.60;1.50;;;18.20;99.90;;;;;;4973331;28;20578;-71
2022/08/18 06:55:50;;;;;;;6.40;1.70;;;18.20;99.90;;;;;;4975347;28;20215;-71
2022/08/18 06:58:18;;;;;;;10.17;1.97;;;18.00;99.90;;;;;;4976908;28;20201;-71
2022/08/18 07:00:59;;;;;;;7.47;1.97;;;18.00;99.90;;;;;;4977289;28;20524;-72
2022/08/18 07:03:50;;;;;;;3.90;1.67;;;17.90;99.90;;;;;;4976914;28;20210;-72
2022/08/18 07:06:20;;;;;;;6.07;2.07;;;17.70;99.90;;;;;;4977233;28;20191;-72
2022/08/18 07:08:51;;;;;;;3.43;1.60;;;17.60;99.90;;;;;;4977133;28;20176;-71
2022/08/18 07:11:31;;;;;;;7.90;1.80;;;17.40;99.90;;;;;;4976700;28;20198;-70
2022/08/18 07:14:13;;;;;;;1.83;1.20;;;17.30;99.90;;;;;;4976504;28;20223;-71
2022/08/18 07:16:41;;;;;;;5.50;1.70;;;17.20;99.90;;;;;;4977278;28;20195;-72
2022/08/18 07:19:15;;;;;;;3.37;1.50;;;17.20;99.90;;;;;;4976563;28;20637;-70
2022/08/18 07:21:44;;;;;;;4.30;1.27;;;17.10;99.90;;;;;;4976626;28;20183;-71
2022/08/18 07:24:29;;;;;;;3.77;1.83;;;17.00;99.90;;;;;;4972847;28;20184;-72
2022/08/18 07:27:07;;;;;;;8.80;1.50;;;16.90;99.90;;;;;;4975614;28;20201;-71
2022/08/18 07:29:58;;;;;;;5.07;2.03;;;16.80;99.90;;;;;;4980073;28;20178;-72
2022/08/18 07:32:31;;;;;;;9.87;2.37;;;16.80;99.90;;;;;;4994670;28;20210;-72
2022/08/18 07:35:02;;;;;;;9.03;1.77;;;16.70;99.90;;;;;;4984481;28;20211;-72
2022/08/18 07:37:40;;;;;;;7.97;1.90;;;16.60;99.90;;;;;;4975297;28;20528;-71
2022/08/18 07:40:14;;;;;;;6.63;2.00;;;16.50;99.90;;;;;;4974953;28;20195;-72
2022/08/18 07:42:53;;;;;;;9.77;2.07;;;16.50;99.90;;;;;;4975779;28;20176;-71
2022/08/18 07:45:36;;;;;;;12.40;2.40;;;16.40;99.90;;;;;;4973451;28;20189;-71
2022/08/18 07:48:20;;;;;;;17.70;2.77;;;16.40;99.90;;;;;;4976085;28;20266;-71
2022/08/18 07:51:06;;;;;;;8.53;2.20;;;16.20;99.90;;;;;;4974980;28;20270;-71
2022/08/18 07:53:55;;;;;;;9.63;2.63;;;16.20;99.90;;;;;;4975067;28;20168;-72
2022/08/18 07:56:59;;;;;;;17.00;2.83;;;16.30;99.90;;;;;;4984224;28;20210;-71
2022/08/18 07:59:38;;;;;;;4.40;1.83;;;16.20;99.90;;;;;;4994141;28;20170;-71
2022/08/18 08:02:15;;;;;;;7.20;2.30;;;16.20;99.90;;;;;;4994026;28;20178;-72
2022/08/18 08:05:01;;;;;;;3.87;2.30;;;16.10;99.90;;;;;;4993430;28;20271;-72
2022/08/18 08:07:54;;;;;;;6.27;2.20;;;16.10;99.90;;;;;;4992941;28;20576;-72
2022/08/18 08:10:37;;;;;;;6.77;2.50;;;16.10;99.90;;;;;;4974513;28;20628;-72
2022/08/18 08:13:18;;;;;;;6.60;2.43;;;15.90;99.90;;;;;;4974523;28;20194;-71
2022/08/18 08:16:12;;;;;;;11.67;2.83;;;15.90;99.90;;;;;;4973989;28;20222;-72
2022/08/18 08:19:04;;;;;;;11.27;3.00;;;15.80;99.90;;;;;;4973759;28;20234;-71
2022/08/18 08:21:39;;;;;;;9.40;3.00;;;15.70;99.90;;;;;;4973354;28;20234;-72
2022/08/18 08:24:19;;;;;;;7.47;2.80;;;15.70;99.90;;;;;;4974188;28;20179;-72
2022/08/18 08:26:57;;;;;;;9.50;3.43;;;15.70;99.90;;;;;;4974369;28;20657;-70
2022/08/18 08:29:33;;;;;;;10.93;3.10;;;15.70;99.90;;;;;;4974210;28;20194;-72
2022/08/18 08:32:05;;;;;;;11.47;2.80;;;15.70;99.90;;;;;;4974171;28;20190;-73
2022/08/18 08:34:39;;;;;;;6.87;3.80;;;15.60;99.90;;;;;;4974124;28;20194;-71
2022/08/18 08:37:17;;;;;;;5.93;3.03;;;15.60;99.90;;;;;;4974069;28;20183;-70
2022/08/18 08:40:13;;;;;;;14.07;4.93;;;15.60;99.90;;;;;;4956120;28;20210;-71
2022/08/18 08:42:48;;;;;;;15.63;6.63;;;15.60;99.90;;;;;;4973978;28;20202;-71
2022/08/18 08:45:27;;;;;;;11.07;5.43;;;15.50;99.90;;;;;;4973938;28;20233;-71
2022/08/18 08:48:06;;;;;;;8.80;4.83;;;15.50;99.90;;;;;;4973883;28;20183;-70
2022/08/18 08:50:44;;;;;;;9.13;4.67;;;15.60;99.90;;;;;;4973792;28;20190;-72
2022/08/18 08:53:21;;;;;;;9.87;4.93;;;15.70;99.90;;;;;;4973861;28;20175;-71
2022/08/18 08:55:55;;;;;;;9.70;4.80;;;15.70;99.90;;;;;;4973334;28;20210;-72
2022/08/18 08:58:27;;;;;;;10.00;4.80;;;15.70;99.90;;;;;;4973391;28;20202;-71
2022/08/18 09:00:56;;;;;;;9.87;4.70;;;15.60;99.90;;;;;;4973414;28;20666;-72
2022/08/18 09:03:33;;;;;;;8.00;4.47;;;15.60;99.90;;;;;;4973405;28;20179;-72
2022/08/18 09:06:36;;;;;;;7.47;4.73;;;15.50;99.90;;;;;;4973485;28;20171;-71
2022/08/18 09:09:12;;;;;;;8.93;4.80;;;15.50;99.90;;;;;;4913865;29;20563;-72
2022/08/18 09:12:16;;;;;;;9.97;5.03;;;15.50;99.90;;;;;;4965098;28;20217;-71
2022/08/18 09:15:02;;;;;;;12.80;4.90;;;15.50;99.90;;;;;;4973350;28;20241;-70
2022/08/18 09:17:57;;;;;;;11.90;5.20;;;15.50;99.90;;;;;;4972703;28;20191;-70
2022/08/18 09:20:46;;;;;;;12.63;5.10;;;15.40;99.90;;;;;;4972968;28;20225;-71
2022/08/18 09:23:31;;;;;;;11.03;5.17;;;15.30;99.90;;;;;;4973548;28;20175;-71
2022/08/18 09:26:20;;;;;;;16.07;5.13;;;15.40;99.90;;;;;;4954175;29;20176;-71
2022/08/18 09:29:10;;;;;;;12.63;5.40;;;15.30;99.90;;;;;;4953947;28;20207;-71
2022/08/18 09:31:37;;;;;;;13.27;5.07;;;15.30;99.90;;;;;;4966426;28;20203;-71
2022/08/18 09:34:45;;;;;;;13.03;5.70;;;15.30;99.90;;;;;;4973238;28;20179;-70
2022/08/18 09:37:22;;;;;;;8.63;5.50;;;15.20;99.90;;;;;;4972999;28;20270;-71
2022/08/18 09:43:25;;;;;;;13.30;6.03;;;15.30;99.90;;;;;;4953825;29;20199;-71
2022/08/18 09:46:03;;;;;;;10.77;4.93;;;15.20;99.90;;;;;;4953823;29;20184;-72
2022/08/18 09:48:34;;;;;;;9.50;4.33;;;15.10;99.90;;;;;;4957185;29;20183;-69
2022/08/18 09:51:46;;;;;;;8.83;4.53;;;15.00;99.90;;;;;;4964688;28;20183;-73
2022/08/18 09:54:26;;;;;;;8.93;4.30;;;15.00;99.90;;;;;;4952493;28;20201;-71
2022/08/18 09:57:16;;;;;;;7.43;4.73;;;15.00;99.90;;;;;;4974428;28;20190;-73
2022/08/18 09:59:47;;;;;;;9.97;4.80;;;14.90;99.90;;;;;;4974119;28;20172;-70
2022/08/18 10:02:34;;;;;;;9.10;4.60;;;14.80;99.90;;;;;;4973506;28;20187;-71
2022/08/18 10:05:18;;;;;;;8.90;4.73;;;14.70;99.90;;;;;;4952752;28;20231;-71
2022/08/18 10:08:04;;;;;;;10.43;4.70;;;14.70;99.90;;;;;;4972792;28;20174;-71
2022/08/18 10:10:48;;;;;;;5.53;4.30;;;14.70;99.90;;;;;;4972292;28;20175;-70
2022/08/18 10:13:39;;;;;;;13.60;4.53;;;14.60;99.90;;;;;;4955492;28;20246;-71
2022/08/18 10:16:24;;;;;;;12.53;4.37;;;14.60;99.90;;;;;;4972683;28;20215;-72
2022/08/18 10:19:22;;;;;;;14.13;4.63;;;14.60;99.90;;;;;;4972405;28;20321;-72
2022/08/18 10:21:59;;;;;;;10.07;4.97;;;14.50;99.90;;;;;;4968177;28;20205;-71
2022/08/18 10:24:44;;;;;;;14.63;5.70;;;14.60;99.90;;;;;;4972788;28;20545;-72
2022/08/18 10:27:45;;;;;;;12.93;5.53;;;14.60;99.90;;;;;;4973587;28;20190;-72
2022/08/18 10:30:34;;;;;;;11.23;5.03;;;14.60;99.90;;;;;;4971829;28;20674;-71
2022/08/18 10:33:08;;;;;;;11.77;5.27;;;14.40;99.90;;;;;;4977853;28;20178;-71
2022/08/18 10:35:36;;;;;;;10.47;5.57;;;14.40;99.90;;;;;;4977802;28;20210;-72
2022/08/18 10:38:18;;;;;;;10.13;5.80;;;14.40;99.90;;;;;;4977604;28;20178;-72
2022/08/18 10:41:03;;;;;;;11.03;6.37;;;14.30;99.90;;;;;;4977628;28;20636;-72
2022/08/18 10:43:52;;;;;;;14.63;7.00;;;14.30;99.90;;;;;;4977748;28;20175;-72
2022/08/18 10:46:28;;;;;;;17.70;7.07;;;14.30;99.90;;;;;;4977818;28;20274;-72
2022/08/18 10:49:23;;;;;;;20.03;8.10;;;14.40;99.90;;;;;;4977750;28;20182;-72
2022/08/18 10:52:19;;;;;;;14.40;6.63;;;14.40;99.90;;;;;;4978112;28;20186;-72
2022/08/18 10:55:19;;;;;;;15.87;6.40;;;14.50;99.90;;;;;;4977641;28;20301;-71
2022/08/18 10:58:14;;;;;;;14.77;7.03;;;14.40;99.90;;;;;;4960099;28;20223;-72
2022/08/18 11:00:53;;;;;;;23.33;8.33;;;14.40;99.90;;;;;;4977576;28;20178;-72
2022/08/18 11:03:46;;;;;;;17.13;6.87;;;14.40;99.90;;;;;;4978048;28;20173;-71
2022/08/18 11:06:23;;;;;;;12.67;6.53;;;14.40;99.90;;;;;;4977187;28;20183;-72
2022/08/18 11:08:59;;;;;;;16.33;7.33;;;14.30;99.90;;;;;;4977128;28;20182;-73
2022/08/18 11:11:37;;;;;;;14.50;7.23;;;14.20;99.90;;;;;;4977234;28;20181;-72
2022/08/18 11:14:28;;;;;;;25.57;8.30;;;14.20;99.90;;;;;;4977274;28;20182;-72
2022/08/18 11:17:14;;;;;;;16.67;8.37;;;14.20;99.90;;;;;;4977150;28;20206;-72
2022/08/18 11:19:44;;;;;;;15.97;8.17;;;14.20;99.90;;;;;;4977034;28;20262;-73
2022/08/18 11:22:30;;;;;;;21.23;8.77;;;14.20;99.90;;;;;;4977223;28;20253;-73
2022/08/18 11:25:00;;;;;;;17.37;8.57;;;14.20;99.90;;;;;;4977262;28;20250;-71
2022/08/18 11:27:31;;;;;;;23.87;9.93;;;14.10;99.90;;;;;;4977047;28;20190;-72
2022/08/18 11:30:04;;;;;;;23.73;10.13;;;14.20;99.90;;;;;;4976958;28;20217;-71
2022/08/18 11:32:36;;;;;;;18.70;10.23;;;14.20;99.90;;;;;;4977073;28;20191;-70
2022/08/18 11:35:17;;;;;;;23.73;9.47;;;14.30;99.90;;;;;;4976744;28;20214;-71
2022/08/18 11:38:07;;;;;;;19.93;9.50;;;14.40;99.90;;;;;;4976847;28;20232;-71
2022/08/18 11:40:44;;;;;;;18.43;8.23;;;14.40;99.90;;;;;;4976521;28;20525;-71
2022/08/18 11:43:23;;;;;;;14.97;8.30;;;14.30;99.90;;;;;;4976592;28;20582;-71
2022/08/18 11:45:58;;;;;;;20.13;8.27;;;14.30;99.90;;;;;;4976546;28;20175;-72
2022/08/18 11:48:43;;;;;;;19.10;8.13;;;14.30;99.90;;;;;;4976535;28;20333;-71
2022/08/18 11:51:24;;;;;;;18.23;8.57;;;14.20;99.90;;;;;;4976464;28;20201;-72
2022/08/18 11:53:58;;;;;;;17.20;8.87;;;14.10;99.90;;;;;;4976434;28;20186;-71
2022/08/18 11:56:31;;;;;;;16.07;7.37;;;14.10;99.90;;;;;;4976220;28;20743;-72
2022/08/18 11:59:03;;;;;;;16.70;8.37;;;14.10;99.90;;;;;;4976428;28;20242;-73
2022/08/18 12:01:37;;;;;;;24.27;7.83;;;14.10;99.90;;;;;;4976286;28;20183;-72
2022/08/18 12:04:24;;;;;;;25.00;8.10;;;14.10;99.90;;;;;;4976184;28;20214;-72
2022/08/18 12:07:07;;;;;;;16.53;7.57;;;13.90;99.90;;;;;;4976789;28;20188;-72
2022/08/18 12:10:07;;;;;;;14.47;8.00;;;13.90;99.90;;;;;;4976022;28;20186;-72
2022/08/18 12:12:43;;;;;;;17.33;7.33;;;13.90;99.90;;;;;;4976157;28;20712;-72
2022/08/18 12:15:15;;;;;;;14.53;8.13;;;13.90;99.90;;;;;;4976047;28;20305;-73
2022/08/18 12:17:44;;;;;;;21.00;7.90;;;13.90;99.90;;;;;;4975781;28;20175;-72
2022/08/18 12:20:13;;;;;;;18.97;8.67;;;13.90;99.90;;;;;;4958845;28;20341;-72
2022/08/18 12:22:42;;;;;;;21.17;8.63;;;13.90;99.90;;;;;;4976061;28;20197;-72
2022/08/18 12:25:13;;;;;;;20.50;8.80;;;13.80;99.90;;;;;;4975852;28;20231;-71
2022/08/18 12:27:41;;;;;;;18.67;8.87;;;13.80;99.90;;;;;;4976094;28;20193;-72
2022/08/18 12:30:10;;;;;;;17.80;8.73;;;13.70;99.90;;;;;;4975863;28;20657;-72
2022/08/18 12:32:38;;;;;;;17.07;8.47;;;13.70;99.90;;;;;;4975832;28;20182;-71
2022/08/18 12:35:10;;;;;;;16.03;8.73;;;13.60;99.90;;;;;;4974649;28;20211;-72
2022/08/18 12:37:40;;;;;;;17.17;8.97;;;13.60;99.90;;;;;;4975512;28;20186;-72
2022/08/18 12:40:09;;;;;;;19.27;9.07;;;13.50;99.90;;;;;;4975628;28;20188;-73
2022/08/18 12:42:36;;;;;;;28.53;9.77;;;13.50;99.90;;;;;;4975712;28;20179;-73
2022/08/18 12:45:06;;;;;;;18.80;9.87;;;13.50;99.90;;;;;;4975205;28;20278;-72
2022/08/18 12:47:37;;;;;;;21.03;9.83;;;13.40;99.90;;;;;;4975206;28;20646;-72
2022/08/18 12:50:04;;;;;;;16.50;9.63;;;13.40;99.90;;;;;;4975467;28;20175;-73
2022/08/18 12:52:32;;;;;;;20.03;9.20;;;13.30;99.90;;;;;;4974901;28;20185;-72
2022/08/18 12:54:59;;;;;;;17.53;8.97;;;13.30;99.90;;;;;;4974905;28;20229;-71
2022/08/18 12:57:28;;;;;;;17.60;9.37;;;13.30;99.90;;;;;;4974991;28;20182;-72
2022/08/18 12:59:56;;;;;;;16.00;9.17;;;13.30;99.90;;;;;;4975310;28;20253;-73
2022/08/18 13:02:23;;;;;;;14.23;9.10;;;13.30;99.90;;;;;;4975988;28;20642;-71
2022/08/18 13:04:51;;;;;;;13.93;8.77;;;13.20;99.90;;;;;;4975982;28;20204;-72
2022/08/18 13:07:19;;;;;;;14.30;9.30;;;13.20;99.90;;;;;;4975766;28;20178;-72
2022/08/18 13:09:46;;;;;;;15.60;9.83;;;13.20;99.90;;;;;;4976396;28;20214;-72
2022/08/18 13:12:14;;;;;;;12.50;8.83;;;13.20;99.90;;;;;;4975245;28;20181;-71
2022/08/18 13:14:42;;;;;;;21.47;11.03;;;13.20;99.90;;;;;;4974639;28;20213;-71
2022/08/18 13:17:10;;;;;;;21.50;10.03;;;13.30;99.90;;;;;;4974768;28;20195;-72
2022/08/18 13:19:38;;;;;;;17.63;10.73;;;13.30;99.90;;;;;;4974463;28;20684;-72
2022/08/18 13:22:05;;;;;;;16.57;10.27;;;13.30;99.90;;;;;;4974446;28;20274;-72
2022/08/18 13:24:32;;;;;;;26.17;11.17;;;13.40;99.90;;;;;;4974605;28;20538;-73
2022/08/18 13:27:02;;;;;;;17.80;10.50;;;13.30;99.90;;;;;;4957504;28;20606;-73
2022/08/18 13:29:29;;;;;;;13.27;9.83;;;13.20;99.90;;;;;;4974614;28;20212;-72
2022/08/18 13:31:58;;;;;;;22.63;9.70;;;13.20;99.90;;;;;;4957305;28;20641;-73
2022/08/18 13:34:26;;;;;;;19.77;9.93;;;13.40;99.90;;;;;;4974223;28;20181;-73
2022/08/18 13:36:54;;;;;;;28.07;9.97;;;13.40;99.90;;;;;;4974603;28;20298;-72
2022/08/18 13:39:25;;;;;;;22.17;8.07;;;13.30;99.90;;;;;;4974541;28;20185;-72